KQA448 HBBA-HKJK
Flight info
| Callsign | KQA448 |
|---|---|
| Flight time | 1h 16m |
| Altitude | 41000 |
| Route | BJA UM306 PARIN PARIN3A |
| Aircraft | E190/M-SDE3GILORVW/S |
Departure
| Time | 2026-04-20 06:08 |
|---|---|
| Airport | Bujumbura Melchior Ndadaye International Airport (HBBA) |
Arrival
| Time | 2026-04-20 07:24 |
|---|---|
| Airport | Jomo Kenyatta International Airport (HKJK) |
| Time | Latitude | Longitude | Altitude | Speed | Heading |
|---|---|---|---|---|---|
| 2026-04-20 05:47 | -3.31875 | 29.32019 | 2572 ft | 0 kts | 171° |
| 2026-04-20 06:05 | -3.31876 | 29.32019 | 2571 ft | 1 kts | 171° |
| 2026-04-20 06:05 | -3.31889 | 29.32019 | 2570 ft | 2 kts | 191° |
| 2026-04-20 06:05 | -3.31910 | 29.31997 | 2573 ft | 6 kts | 236° |
| 2026-04-20 06:06 | -3.31906 | 29.31949 | 2571 ft | 9 kts | 305° |
| 2026-04-20 06:06 | -3.31859 | 29.31925 | 2573 ft | 8 kts | 324° |
| 2026-04-20 06:06 | -3.31853 | 29.31866 | 2575 ft | 10 kts | 261° |
| 2026-04-20 06:06 | -3.31864 | 29.31796 | 2577 ft | 11 kts | 261° |
| 2026-04-20 06:07 | -3.31915 | 29.31771 | 2579 ft | 7 kts | 170° |
| 2026-04-20 06:07 | -3.31980 | 29.31781 | 2577 ft | 11 kts | 172° |
| 2026-04-20 06:07 | -3.32191 | 29.31814 | 2577 ft | 65 kts | 171° |
| 2026-04-20 06:07 | -3.32894 | 29.31928 | 2573 ft | 138 kts | 171° |
| 2026-04-20 06:08 | -3.33982 | 29.32092 | 2879 ft | 174 kts | 171° |
| 2026-04-20 06:08 | -3.35246 | 29.32286 | 3658 ft | 193 kts | 170° |
| 2026-04-20 06:08 | -3.36619 | 29.32526 | 4573 ft | 213 kts | 169° |
| 2026-04-20 06:08 | -3.38170 | 29.32793 | 5331 ft | 237 kts | 166° |
| 2026-04-20 06:09 | -3.39769 | 29.33540 | 5942 ft | 279 kts | 138° |
| 2026-04-20 06:09 | -3.41063 | 29.34976 | 7368 ft | 274 kts | 123° |
| 2026-04-20 06:09 | -3.41794 | 29.36747 | 8848 ft | 277 kts | 96° |
| 2026-04-20 06:09 | -3.41624 | 29.38673 | 10204 ft | 286 kts | 80° |
| 2026-04-20 06:10 | -3.41212 | 29.40657 | 11307 ft | 293 kts | 78° |
| 2026-04-20 06:10 | -3.40751 | 29.42656 | 12565 ft | 296 kts | 77° |
| 2026-04-20 06:10 | -3.40300 | 29.44637 | 13987 ft | 290 kts | 77° |
| 2026-04-20 06:10 | -3.39870 | 29.46592 | 15210 ft | 287 kts | 78° |
| 2026-04-20 06:11 | -3.39443 | 29.48552 | 16214 ft | 290 kts | 78° |
| 2026-04-20 06:11 | -3.38984 | 29.50537 | 17088 ft | 295 kts | 77° |
| 2026-04-20 06:11 | -3.38500 | 29.52492 | 17427 ft | 291 kts | 76° |
| 2026-04-20 06:11 | -3.37949 | 29.54483 | 18042 ft | 302 kts | 75° |
| 2026-04-20 06:12 | -3.37384 | 29.56541 | 18715 ft | 310 kts | 76° |
| 2026-04-20 06:12 | -3.36808 | 29.58637 | 19425 ft | 314 kts | 76° |
| 2026-04-20 06:12 | -3.36238 | 29.60766 | 20156 ft | 318 kts | 76° |
| 2026-04-20 06:12 | -3.35660 | 29.62916 | 20875 ft | 322 kts | 75° |
| 2026-04-20 06:13 | -3.35058 | 29.65084 | 21570 ft | 325 kts | 75° |
| 2026-04-20 06:13 | -3.34444 | 29.67279 | 22249 ft | 329 kts | 75° |
| 2026-04-20 06:13 | -3.33834 | 29.69469 | 22922 ft | 333 kts | 75° |
| 2026-04-20 06:13 | -3.33192 | 29.71711 | 23605 ft | 337 kts | 74° |
| 2026-04-20 06:14 | -3.32539 | 29.73972 | 24175 ft | 339 kts | 75° |
| 2026-04-20 06:14 | -3.31883 | 29.76251 | 24689 ft | 343 kts | 74° |
| 2026-04-20 06:14 | -3.31214 | 29.78553 | 25233 ft | 345 kts | 74° |
| 2026-04-20 06:14 | -3.30536 | 29.80863 | 25741 ft | 348 kts | 74° |
| 2026-04-20 06:15 | -3.29841 | 29.83199 | 26233 ft | 351 kts | 74° |
| 2026-04-20 06:15 | -3.29132 | 29.85553 | 26745 ft | 354 kts | 74° |
| 2026-04-20 06:15 | -3.28416 | 29.87915 | 27235 ft | 357 kts | 74° |
| 2026-04-20 06:15 | -3.27686 | 29.90294 | 27723 ft | 359 kts | 73° |
| 2026-04-20 06:16 | -3.26943 | 29.92699 | 28201 ft | 362 kts | 73° |
| 2026-04-20 06:16 | -3.26194 | 29.95121 | 28665 ft | 365 kts | 73° |
| 2026-04-20 06:16 | -3.25437 | 29.97559 | 29132 ft | 368 kts | 73° |
| 2026-04-20 06:16 | -3.24665 | 30.00018 | 29567 ft | 371 kts | 73° |
| 2026-04-20 06:17 | -3.23882 | 30.02490 | 30012 ft | 374 kts | 73° |
| 2026-04-20 06:17 | -3.23089 | 30.04976 | 30374 ft | 376 kts | 73° |
| 2026-04-20 06:17 | -3.22296 | 30.07444 | 30693 ft | 379 kts | 73° |
| 2026-04-20 06:17 | -3.21483 | 30.09958 | 31032 ft | 381 kts | 73° |
| 2026-04-20 06:18 | -3.20659 | 30.12493 | 31365 ft | 384 kts | 73° |
| 2026-04-20 06:18 | -3.19831 | 30.15040 | 31691 ft | 386 kts | 73° |
| 2026-04-20 06:18 | -3.18993 | 30.17610 | 32018 ft | 389 kts | 73° |
| 2026-04-20 06:18 | -3.18148 | 30.20189 | 32358 ft | 391 kts | 73° |
| 2026-04-20 06:19 | -3.17300 | 30.22775 | 32722 ft | 392 kts | 73° |
| 2026-04-20 06:19 | -3.16443 | 30.25374 | 33081 ft | 393 kts | 73° |
| 2026-04-20 06:19 | -3.15585 | 30.27972 | 33399 ft | 396 kts | 73° |
| 2026-04-20 06:19 | -3.14705 | 30.30601 | 33668 ft | 399 kts | 72° |
| 2026-04-20 06:20 | -3.13824 | 30.33232 | 34043 ft | 399 kts | 73° |
| 2026-04-20 06:20 | -3.12933 | 30.35888 | 34213 ft | 404 kts | 72° |
| 2026-04-20 06:20 | -3.12034 | 30.38550 | 34504 ft | 405 kts | 72° |
| 2026-04-20 06:20 | -3.11136 | 30.41224 | 34737 ft | 407 kts | 72° |
| 2026-04-20 06:21 | -3.10220 | 30.43919 | 34920 ft | 410 kts | 72° |
| 2026-04-20 06:21 | -3.09302 | 30.46619 | 35235 ft | 410 kts | 72° |
| 2026-04-20 06:21 | -3.08384 | 30.49329 | 35396 ft | 414 kts | 72° |
| 2026-04-20 06:21 | -3.07446 | 30.52063 | 35624 ft | 416 kts | 72° |
| 2026-04-20 06:22 | -3.06511 | 30.54795 | 35944 ft | 415 kts | 72° |
| 2026-04-20 06:22 | -3.05572 | 30.57542 | 36065 ft | 419 kts | 72° |
| 2026-04-20 06:22 | -3.04630 | 30.60269 | 36256 ft | 421 kts | 72° |
| 2026-04-20 06:22 | -3.03676 | 30.63037 | 36559 ft | 420 kts | 72° |
| 2026-04-20 06:23 | -3.02721 | 30.65808 | 36663 ft | 424 kts | 72° |
| 2026-04-20 06:23 | -3.01748 | 30.68607 | 36810 ft | 426 kts | 72° |
| 2026-04-20 06:23 | -3.00775 | 30.71411 | 37091 ft | 425 kts | 72° |
| 2026-04-20 06:23 | -2.99803 | 30.74210 | 37270 ft | 427 kts | 72° |
| 2026-04-20 06:24 | -2.97829 | 30.79871 | 37558 ft | 431 kts | 72° |
| 2026-04-20 06:24 | -2.96956 | 30.82734 | 37807 ft | 429 kts | 77° |
| 2026-04-20 06:24 | -2.96268 | 30.85633 | 38045 ft | 428 kts | 78° |
| 2026-04-20 06:25 | -2.95600 | 30.88494 | 38266 ft | 427 kts | 77° |
| 2026-04-20 06:25 | -2.94898 | 30.91389 | 38451 ft | 428 kts | 77° |
| 2026-04-20 06:25 | -2.94181 | 30.94270 | 38677 ft | 426 kts | 77° |
| 2026-04-20 06:25 | -2.93457 | 30.97145 | 38865 ft | 426 kts | 77° |
| 2026-04-20 06:26 | -2.92729 | 31.00019 | 39016 ft | 426 kts | 77° |
| 2026-04-20 06:26 | -2.92002 | 31.02892 | 39164 ft | 426 kts | 76° |
| 2026-04-20 06:26 | -2.91273 | 31.05768 | 39327 ft | 426 kts | 77° |
| 2026-04-20 06:26 | -2.90544 | 31.08645 | 39496 ft | 426 kts | 76° |
| 2026-04-20 06:27 | -2.89817 | 31.11514 | 39661 ft | 426 kts | 76° |
| 2026-04-20 06:27 | -2.89089 | 31.14384 | 39831 ft | 425 kts | 76° |
| 2026-04-20 06:27 | -2.88362 | 31.17251 | 39976 ft | 425 kts | 76° |
| 2026-04-20 06:27 | -2.87636 | 31.20117 | 40138 ft | 425 kts | 76° |
| 2026-04-20 06:28 | -2.86907 | 31.22990 | 40262 ft | 426 kts | 76° |
| 2026-04-20 06:28 | -2.86188 | 31.25821 | 40437 ft | 424 kts | 77° |
| 2026-04-20 06:28 | -2.85463 | 31.28681 | 40597 ft | 424 kts | 76° |
| 2026-04-20 06:28 | -2.84735 | 31.31545 | 40732 ft | 425 kts | 77° |
| 2026-04-20 06:29 | -2.84007 | 31.34416 | 40876 ft | 424 kts | 76° |
| 2026-04-20 06:29 | -2.83284 | 31.37267 | 41159 ft | 419 kts | 76° |
| 2026-04-20 06:29 | -2.81835 | 31.42978 | 41158 ft | 428 kts | 76° |
| 2026-04-20 06:30 | -2.81097 | 31.45883 | 41039 ft | 434 kts | 76° |
| 2026-04-20 06:30 | -2.80350 | 31.48822 | 41058 ft | 437 kts | 76° |
| 2026-04-20 06:30 | -2.78841 | 31.54767 | 41035 ft | 445 kts | 76° |
| 2026-04-20 06:31 | -2.77566 | 31.59787 | 41041 ft | 449 kts | 76° |
| 2026-04-20 06:31 | -2.75771 | 31.66848 | 41030 ft | 451 kts | 76° |
| 2026-04-20 06:32 | -2.74228 | 31.72918 | 41033 ft | 450 kts | 76° |
| 2026-04-20 06:32 | -2.72689 | 31.78977 | 41028 ft | 449 kts | 76° |
| 2026-04-20 06:33 | -2.71408 | 31.84013 | 41021 ft | 449 kts | 76° |
| 2026-04-20 06:33 | -2.69612 | 31.91076 | 41024 ft | 448 kts | 76° |
| 2026-04-20 06:34 | -2.68335 | 31.96098 | 41025 ft | 447 kts | 76° |
| 2026-04-20 06:35 | -2.66045 | 32.05099 | 41025 ft | 447 kts | 76° |
| 2026-04-20 06:35 | -2.64513 | 32.11113 | 41028 ft | 446 kts | 76° |
| 2026-04-20 06:36 | -2.62984 | 32.17124 | 41026 ft | 446 kts | 76° |
| 2026-04-20 06:36 | -2.61455 | 32.23130 | 41032 ft | 445 kts | 77° |
| 2026-04-20 06:37 | -2.59924 | 32.29140 | 41031 ft | 445 kts | 76° |
| 2026-04-20 06:37 | -2.58396 | 32.35137 | 41031 ft | 445 kts | 77° |
| 2026-04-20 06:38 | -2.56868 | 32.41140 | 41034 ft | 445 kts | 76° |
| 2026-04-20 06:38 | -2.55341 | 32.47130 | 41032 ft | 444 kts | 76° |
| 2026-04-20 06:39 | -2.53815 | 32.53117 | 41031 ft | 444 kts | 76° |
| 2026-04-20 06:39 | -2.52291 | 32.59097 | 41030 ft | 444 kts | 76° |
| 2026-04-20 06:40 | -2.50767 | 32.65075 | 41032 ft | 444 kts | 76° |
| 2026-04-20 06:40 | -2.49252 | 32.71011 | 41034 ft | 443 kts | 76° |
| 2026-04-20 06:41 | -2.47841 | 32.77003 | 41035 ft | 443 kts | 78° |
| 2026-04-20 06:41 | -2.46562 | 32.83032 | 41039 ft | 443 kts | 78° |
| 2026-04-20 06:42 | -2.45240 | 32.89108 | 41054 ft | 450 kts | 78° |
| 2026-04-20 06:42 | -2.43877 | 32.95228 | 41044 ft | 452 kts | 76° |
| 2026-04-20 06:43 | -2.42169 | 33.01277 | 41027 ft | 452 kts | 74° |
| 2026-04-20 06:43 | -2.40462 | 33.07322 | 41030 ft | 451 kts | 75° |
| 2026-04-20 06:44 | -2.38796 | 33.13338 | 41025 ft | 451 kts | 75° |
| 2026-04-20 06:44 | -2.37129 | 33.19376 | 41028 ft | 450 kts | 75° |
| 2026-04-20 06:45 | -2.35463 | 33.25409 | 41028 ft | 450 kts | 75° |
| 2026-04-20 06:45 | -2.33798 | 33.31437 | 41035 ft | 449 kts | 75° |
| 2026-04-20 06:46 | -2.32134 | 33.37460 | 41027 ft | 449 kts | 75° |
| 2026-04-20 06:46 | -2.30469 | 33.43485 | 41033 ft | 449 kts | 75° |
| 2026-04-20 06:47 | -2.28805 | 33.49506 | 41024 ft | 449 kts | 75° |
| 2026-04-20 06:47 | -2.27153 | 33.55485 | 41021 ft | 449 kts | 75° |
| 2026-04-20 06:48 | -2.25481 | 33.61532 | 41022 ft | 448 kts | 75° |
| 2026-04-20 06:48 | -2.23829 | 33.67507 | 41022 ft | 448 kts | 75° |
| 2026-04-20 06:49 | -2.22168 | 33.73514 | 41021 ft | 448 kts | 75° |
| 2026-04-20 06:49 | -2.20507 | 33.79516 | 41025 ft | 448 kts | 75° |
| 2026-04-20 06:50 | -2.18845 | 33.85525 | 41019 ft | 448 kts | 75° |
| 2026-04-20 06:50 | -2.17186 | 33.91522 | 41024 ft | 447 kts | 75° |
| 2026-04-20 06:51 | -2.15527 | 33.97518 | 41023 ft | 447 kts | 75° |
| 2026-04-20 06:51 | -2.13866 | 34.03518 | 41019 ft | 447 kts | 75° |
| 2026-04-20 06:52 | -2.12217 | 34.09477 | 41023 ft | 447 kts | 75° |
| 2026-04-20 06:52 | -2.10556 | 34.15476 | 41021 ft | 448 kts | 75° |
| 2026-04-20 06:53 | -2.08893 | 34.21483 | 41021 ft | 448 kts | 75° |
| 2026-04-20 06:53 | -2.07184 | 34.27472 | 41033 ft | 449 kts | 71° |
| 2026-04-20 06:54 | -2.05067 | 34.33394 | 41021 ft | 455 kts | 70° |
| 2026-04-20 06:54 | -2.02951 | 34.39366 | 41022 ft | 455 kts | 70° |
| 2026-04-20 06:55 | -2.00896 | 34.45310 | 41029 ft | 455 kts | 72° |
| 2026-04-20 06:55 | -1.99206 | 34.51398 | 41025 ft | 454 kts | 75° |
| 2026-04-20 06:56 | -1.97532 | 34.57480 | 41030 ft | 454 kts | 74° |
| 2026-04-20 06:56 | -1.95827 | 34.63545 | 41031 ft | 453 kts | 74° |
| 2026-04-20 06:57 | -1.94112 | 34.69613 | 41028 ft | 453 kts | 74° |
| 2026-04-20 06:57 | -1.92401 | 34.75666 | 41043 ft | 451 kts | 74° |
| 2026-04-20 06:58 | -1.90701 | 34.81677 | 41041 ft | 441 kts | 74° |
| 2026-04-20 06:58 | -1.89885 | 34.84562 | 41050 ft | 422 kts | 74° |
| 2026-04-20 06:58 | -1.89103 | 34.87328 | 41070 ft | 404 kts | 74° |
| 2026-04-20 06:58 | -1.88351 | 34.89985 | 41011 ft | 391 kts | 74° |
| 2026-04-20 06:59 | -1.87615 | 34.92585 | 41061 ft | 390 kts | 74° |
| 2026-04-20 06:59 | -1.86124 | 34.97855 | 41038 ft | 399 kts | 74° |
| 2026-04-20 06:59 | -1.85366 | 35.00554 | 40592 ft | 406 kts | 75° |
| 2026-04-20 07:00 | -1.84712 | 35.03257 | 40609 ft | 396 kts | 77° |
| 2026-04-20 07:00 | -1.83503 | 35.08627 | 40637 ft | 397 kts | 77° |
| 2026-04-20 07:01 | -1.82260 | 35.13989 | 40655 ft | 399 kts | 76° |
| 2026-04-20 07:01 | -1.80988 | 35.19420 | 40044 ft | 410 kts | 76° |
| 2026-04-20 07:01 | -1.80320 | 35.22266 | 38614 ft | 431 kts | 76° |
| 2026-04-20 07:02 | -1.79621 | 35.25243 | 37025 ft | 448 kts | 77° |
| 2026-04-20 07:02 | -1.78902 | 35.28307 | 35453 ft | 455 kts | 77° |
| 2026-04-20 07:02 | -1.78182 | 35.31377 | 33761 ft | 453 kts | 77° |
| 2026-04-20 07:02 | -1.77464 | 35.34436 | 31869 ft | 451 kts | 77° |
| 2026-04-20 07:03 | -1.76751 | 35.37484 | 29963 ft | 450 kts | 78° |
| 2026-04-20 07:03 | -1.76250 | 35.40532 | 28977 ft | 428 kts | 83° |
| 2026-04-20 07:03 | -1.75893 | 35.43366 | 28621 ft | 394 kts | 83° |
| 2026-04-20 07:03 | -1.75538 | 35.46018 | 28190 ft | 379 kts | 83° |
| 2026-04-20 07:04 | -1.75177 | 35.48597 | 27727 ft | 371 kts | 83° |
| 2026-04-20 07:04 | -1.74813 | 35.51123 | 27281 ft | 364 kts | 83° |
| 2026-04-20 07:04 | -1.74451 | 35.53603 | 26850 ft | 357 kts | 82° |
| 2026-04-20 07:04 | -1.74093 | 35.56045 | 26426 ft | 354 kts | 82° |
| 2026-04-20 07:05 | -1.73735 | 35.58483 | 25945 ft | 353 kts | 82° |
| 2026-04-20 07:05 | -1.73380 | 35.60905 | 25497 ft | 351 kts | 82° |
| 2026-04-20 07:05 | -1.73027 | 35.63309 | 25026 ft | 349 kts | 82° |
| 2026-04-20 07:05 | -1.72675 | 35.65704 | 24586 ft | 346 kts | 82° |
| 2026-04-20 07:06 | -1.72325 | 35.68075 | 24124 ft | 343 kts | 82° |
| 2026-04-20 07:06 | -1.71979 | 35.70430 | 23669 ft | 340 kts | 82° |
| 2026-04-20 07:06 | -1.71637 | 35.72750 | 23211 ft | 334 kts | 83° |
| 2026-04-20 07:06 | -1.71302 | 35.75031 | 22792 ft | 330 kts | 82° |
| 2026-04-20 07:07 | -1.70969 | 35.77305 | 22368 ft | 331 kts | 82° |
| 2026-04-20 07:07 | -1.70641 | 35.79547 | 22070 ft | 331 kts | 82° |
| 2026-04-20 07:07 | -1.70303 | 35.81824 | 21861 ft | 331 kts | 82° |
| 2026-04-20 07:07 | -1.69967 | 35.84101 | 21622 ft | 332 kts | 82° |
| 2026-04-20 07:08 | -1.69631 | 35.86385 | 21370 ft | 332 kts | 82° |
| 2026-04-20 07:08 | -1.69297 | 35.88658 | 21123 ft | 331 kts | 82° |
| 2026-04-20 07:08 | -1.68961 | 35.90929 | 20885 ft | 329 kts | 82° |
| 2026-04-20 07:08 | -1.68631 | 35.93189 | 20650 ft | 328 kts | 82° |
| 2026-04-20 07:09 | -1.68299 | 35.95444 | 20409 ft | 327 kts | 82° |
| 2026-04-20 07:09 | -1.67967 | 35.97695 | 20172 ft | 326 kts | 82° |
| 2026-04-20 07:09 | -1.67637 | 35.99933 | 19943 ft | 325 kts | 82° |
| 2026-04-20 07:09 | -1.67308 | 36.02166 | 19715 ft | 324 kts | 82° |
| 2026-04-20 07:10 | -1.66981 | 36.04394 | 19478 ft | 323 kts | 82° |
| 2026-04-20 07:10 | -1.66654 | 36.06614 | 19237 ft | 322 kts | 82° |
| 2026-04-20 07:10 | -1.66328 | 36.08824 | 19011 ft | 321 kts | 82° |
| 2026-04-20 07:10 | -1.66004 | 36.11031 | 18784 ft | 320 kts | 82° |
| 2026-04-20 07:11 | -1.65680 | 36.13229 | 18572 ft | 319 kts | 82° |
| 2026-04-20 07:11 | -1.65358 | 36.15419 | 18349 ft | 319 kts | 82° |
| 2026-04-20 07:11 | -1.65036 | 36.17606 | 18096 ft | 317 kts | 82° |
| 2026-04-20 07:11 | -1.64716 | 36.19781 | 17840 ft | 315 kts | 82° |
| 2026-04-20 07:12 | -1.64395 | 36.21945 | 17586 ft | 313 kts | 82° |
| 2026-04-20 07:12 | -1.64081 | 36.24091 | 17336 ft | 312 kts | 82° |
| 2026-04-20 07:12 | -1.63764 | 36.26232 | 17076 ft | 309 kts | 82° |
| 2026-04-20 07:12 | -1.63453 | 36.28347 | 16833 ft | 306 kts | 82° |
| 2026-04-20 07:13 | -1.63143 | 36.30450 | 16595 ft | 305 kts | 82° |
| 2026-04-20 07:13 | -1.62836 | 36.32535 | 16351 ft | 303 kts | 82° |
| 2026-04-20 07:13 | -1.62529 | 36.34618 | 16107 ft | 302 kts | 82° |
| 2026-04-20 07:13 | -1.62223 | 36.36692 | 15868 ft | 301 kts | 82° |
| 2026-04-20 07:14 | -1.61921 | 36.38736 | 15644 ft | 299 kts | 82° |
| 2026-04-20 07:14 | -1.61615 | 36.40814 | 15393 ft | 298 kts | 82° |
| 2026-04-20 07:14 | -1.61318 | 36.42836 | 15155 ft | 297 kts | 82° |
| 2026-04-20 07:14 | -1.61019 | 36.44867 | 14941 ft | 295 kts | 82° |
| 2026-04-20 07:15 | -1.60719 | 36.46891 | 14722 ft | 294 kts | 82° |
| 2026-04-20 07:15 | -1.60423 | 36.48906 | 14490 ft | 292 kts | 82° |
| 2026-04-20 07:15 | -1.60127 | 36.50910 | 14263 ft | 291 kts | 82° |
| 2026-04-20 07:15 | -1.59831 | 36.52907 | 14037 ft | 290 kts | 82° |
| 2026-04-20 07:16 | -1.59385 | 36.54864 | 13794 ft | 289 kts | 68° |
| 2026-04-20 07:16 | -1.58338 | 36.56581 | 13578 ft | 289 kts | 57° |
| 2026-04-20 07:16 | -1.57166 | 36.58217 | 13323 ft | 290 kts | 56° |
| 2026-04-20 07:16 | -1.55985 | 36.59846 | 13075 ft | 289 kts | 56° |
| 2026-04-20 07:17 | -1.54817 | 36.61442 | 12832 ft | 287 kts | 56° |
| 2026-04-20 07:17 | -1.53635 | 36.63054 | 12576 ft | 287 kts | 56° |
| 2026-04-20 07:17 | -1.52459 | 36.64658 | 12444 ft | 283 kts | 56° |
| 2026-04-20 07:17 | -1.51301 | 36.66246 | 12517 ft | 286 kts | 56° |
| 2026-04-20 07:18 | -1.50109 | 36.67884 | 12090 ft | 293 kts | 56° |
| 2026-04-20 07:18 | -1.48868 | 36.69488 | 11673 ft | 290 kts | 53° |
| 2026-04-20 07:18 | -1.47645 | 36.71076 | 11182 ft | 287 kts | 55° |
| 2026-04-20 07:18 | -1.46505 | 36.72693 | 10438 ft | 281 kts | 56° |
| 2026-04-20 07:19 | -1.45748 | 36.73756 | 9975 ft | 276 kts | 55° |
| 2026-04-20 07:19 | -1.44631 | 36.75266 | 9245 ft | 271 kts | 54° |
| 2026-04-20 07:19 | -1.43533 | 36.76771 | 8754 ft | 263 kts | 56° |
| 2026-04-20 07:19 | -1.42511 | 36.78193 | 8472 ft | 239 kts | 55° |
| 2026-04-20 07:20 | -1.41584 | 36.79466 | 8180 ft | 213 kts | 55° |
| 2026-04-20 07:20 | -1.40760 | 36.80597 | 7899 ft | 190 kts | 55° |
| 2026-04-20 07:20 | -1.40019 | 36.81619 | 7769 ft | 174 kts | 56° |
| 2026-04-20 07:20 | -1.39336 | 36.82560 | 7548 ft | 162 kts | 56° |
| 2026-04-20 07:21 | -1.38699 | 36.83436 | 7345 ft | 150 kts | 56° |
| 2026-04-20 07:21 | -1.38117 | 36.84237 | 7165 ft | 137 kts | 56° |
| 2026-04-20 07:21 | -1.37563 | 36.85002 | 7016 ft | 136 kts | 56° |
| 2026-04-20 07:21 | -1.37009 | 36.85764 | 6843 ft | 136 kts | 56° |
| 2026-04-20 07:22 | -1.36441 | 36.86547 | 6698 ft | 142 kts | 56° |
| 2026-04-20 07:22 | -1.35847 | 36.87364 | 6456 ft | 147 kts | 56° |
| 2026-04-20 07:22 | -1.35253 | 36.88181 | 6235 ft | 143 kts | 56° |
| 2026-04-20 07:22 | -1.34680 | 36.88971 | 6047 ft | 137 kts | 55° |
| 2026-04-20 07:23 | -1.34122 | 36.89741 | 5834 ft | 139 kts | 56° |
| 2026-04-20 07:23 | -1.33553 | 36.90533 | 5660 ft | 141 kts | 55° |
| 2026-04-20 07:23 | -1.32977 | 36.91336 | 5456 ft | 140 kts | 55° |
| 2026-04-20 07:23 | -1.32421 | 36.92095 | 5336 ft | 126 kts | 55° |
| 2026-04-20 07:24 | -1.31979 | 36.92706 | 5311 ft | 85 kts | 53° |
| 2026-04-20 07:24 | -1.31716 | 36.93061 | 5306 ft | 45 kts | 54° |
| 2026-04-20 07:24 | -1.31570 | 36.93262 | 5306 ft | 22 kts | 54° |
| 2026-04-20 07:24 | -1.31566 | 36.93325 | 5305 ft | 4 kts | 137° |
| 2026-04-20 07:25 | -1.31593 | 36.93347 | 5306 ft | 7 kts | 142° |
| 2026-04-20 07:25 | -1.31643 | 36.93384 | 5306 ft | 11 kts | 145° |
| 2026-04-20 07:25 | -1.31710 | 36.93431 | 5303 ft | 13 kts | 144° |
| 2026-04-20 07:25 | -1.31787 | 36.93481 | 5310 ft | 13 kts | 167° |
| 2026-04-20 07:26 | -1.31861 | 36.93423 | 5305 ft | 16 kts | 235° |
| 2026-04-20 07:26 | -1.31931 | 36.93326 | 5308 ft | 18 kts | 234° |
| 2026-04-20 07:26 | -1.32011 | 36.93216 | 5312 ft | 21 kts | 234° |
| 2026-04-20 07:26 | -1.32103 | 36.93091 | 5309 ft | 23 kts | 233° |
| 2026-04-20 07:27 | -1.32201 | 36.92957 | 5318 ft | 25 kts | 234° |
| 2026-04-20 07:27 | -1.32310 | 36.92810 | 5322 ft | 27 kts | 234° |
| 2026-04-20 07:27 | -1.32408 | 36.92674 | 5323 ft | 24 kts | 234° |
| 2026-04-20 07:27 | -1.32513 | 36.92531 | 5319 ft | 27 kts | 233° |
| 2026-04-20 07:28 | -1.32628 | 36.92373 | 5320 ft | 29 kts | 234° |
| 2026-04-20 07:28 | -1.32727 | 36.92238 | 5324 ft | 15 kts | 233° |
| 2026-04-20 07:28 | -1.32810 | 36.92215 | 5318 ft | 16 kts | 148° |
| 2026-04-20 07:28 | -1.32908 | 36.92254 | 5321 ft | 12 kts | 198° |
| 2026-04-20 07:29 | -1.32994 | 36.92220 | 5322 ft | 15 kts | 196° |
| 2026-04-20 07:29 | -1.33105 | 36.92220 | 5320 ft | 18 kts | 169° |
| 2026-04-20 07:29 | -1.33191 | 36.92244 | 5321 ft | 5 kts | 194° |
| 2026-04-20 07:29 | -1.33218 | 36.92213 | 5323 ft | 7 kts | 237° |
| 2026-04-20 07:30 | -1.33227 | 36.92198 | 5319 ft | 1 kts | 238° |
| 2026-04-20 07:30 | -1.33231 | 36.92191 | 5316 ft | 0 kts | 238° |
| 2026-04-20 07:30 | -1.33233 | 36.92189 | 5316 ft | 0 kts | 238° |